Time;durP1;ratioP1;P1;durP2;ratioP2;P2;SDS_P1;SDS_P2;PMS_P1;PMS_P2;Temp;Humidity;BMP_temperature;BMP_pressure;BME280_temperature;BME280_humidity;BME280_pressure;Samples;Min_cycle;Max_cycle;Signal;HPM_P1;HPM_P2
2022/03/12 00:00:56;;;;;;;14.43;5.60;;;;;;;;;;5059997;28;20131;-63
2022/03/12 00:03:22;;;;;;;10.18;5.68;;;;;;;;;;5056216;28;20404;-62
2022/03/12 00:05:55;;;;;;;13.13;5.57;;;;;;;;;;5052152;28;20488;-63
2022/03/12 00:08:21;;;;;;;11.07;5.53;;;;;;;;;;5056528;28;20041;-63
2022/03/12 00:10:51;;;;;;;9.73;5.70;;;;;;;;;;5052931;28;20175;-63
2022/03/12 00:13:20;;;;;;;14.70;5.47;;;;;;;;;;5052536;28;20049;-63
2022/03/12 00:15:47;;;;;;;13.45;6.07;;;;;;;;;;5051458;28;20120;-63
2022/03/12 00:18:19;;;;;;;13.27;5.50;;;;;;;;;;5051002;28;20087;-63
2022/03/12 00:20:48;;;;;;;12.20;5.90;;;;;;;;;;5054098;28;20048;-63
2022/03/12 00:23:18;;;;;;;13.70;5.70;;;;;;;;;;5053302;28;20052;-63
2022/03/12 00:25:44;;;;;;;12.27;5.40;;;;;;;;;;5050097;28;20049;-63
2022/03/12 00:28:12;;;;;;;10.45;5.90;;;;;;;;;;5053084;28;20067;-63
2022/03/12 00:30:41;;;;;;;9.30;5.18;;;;;;;;;;5052898;28;20055;-63
2022/03/12 00:33:08;;;;;;;11.75;5.60;;;;;;;;;;5052374;28;20075;-63
2022/03/12 00:35:34;;;;;;;9.35;5.60;;;;;;;;;;5052934;28;20108;-62
2022/03/12 00:38:00;;;;;;;12.98;5.65;;;;;;;;;;5050833;28;20374;-63
2022/03/12 00:40:26;;;;;;;13.55;6.03;;;;;;;;;;5053046;28;20055;-63
2022/03/12 00:42:52;;;;;;;10.88;5.63;;;;;;;;;;5045515;28;20089;-63
2022/03/12 00:45:19;;;;;;;12.77;5.85;;;;;;;;;;5052331;28;20036;-63
2022/03/12 00:47:45;;;;;;;15.38;6.72;;;;;;;;;;5053279;28;20124;-63
2022/03/12 00:50:11;;;;;;;12.05;5.68;;;;;;;;;;5052608;28;20044;-63
2022/03/12 00:52:37;;;;;;;9.15;5.30;;;;;;;;;;5052092;28;20396;-63
2022/03/12 00:55:04;;;;;;;13.57;6.25;;;;;;;;;;5052517;28;20049;-63
2022/03/12 00:57:30;;;;;;;13.68;5.32;;;;;;;;;;5050915;28;20518;-63
2022/03/12 00:59:56;;;;;;;10.20;5.75;;;;;;;;;;5051630;28;20051;-62
2022/03/12 01:02:22;;;;;;;11.27;5.13;;;;;;;;;;5053273;28;20041;-62
2022/03/12 01:04:50;;;;;;;10.63;5.10;;;;;;;;;;5055123;28;20045;-63
2022/03/12 01:07:16;;;;;;;12.30;6.25;;;;;;;;;;5052329;28;20041;-63
2022/03/12 01:09:42;;;;;;;10.57;5.38;;;;;;;;;;5053490;28;20040;-63
2022/03/12 01:12:09;;;;;;;9.93;5.57;;;;;;;;;;5052356;28;20120;-62
2022/03/12 01:14:38;;;;;;;10.35;6.30;;;;;;;;;;5052058;28;20041;-63
2022/03/12 01:17:06;;;;;;;15.13;5.68;;;;;;;;;;5051994;28;20047;-63
2022/03/12 01:19:34;;;;;;;10.38;5.57;;;;;;;;;;5052933;28;20044;-63
2022/03/12 01:22:02;;;;;;;9.35;5.10;;;;;;;;;;5050015;28;20262;-63
2022/03/12 01:24:28;;;;;;;13.85;5.63;;;;;;;;;;5048020;28;20041;-63
2022/03/12 01:26:55;;;;;;;9.18;6.03;;;;;;;;;;5051140;28;20037;-63
2022/03/12 01:29:21;;;;;;;11.90;6.20;;;;;;;;;;5050392;28;20489;-63
2022/03/12 01:31:47;;;;;;;10.15;5.50;;;;;;;;;;5054267;28;20055;-63
2022/03/12 01:34:13;;;;;;;11.20;5.53;;;;;;;;;;5055620;28;20472;-63
2022/03/12 01:36:40;;;;;;;11.15;5.43;;;;;;;;;;5054612;28;20037;-62
2022/03/12 01:39:06;;;;;;;10.57;5.75;;;;;;;;;;5060096;28;20040;-63
2022/03/12 01:41:33;;;;;;;21.52;6.00;;;;;;;;;;5057818;28;20485;-62
2022/03/12 01:44:00;;;;;;;12.63;5.53;;;;;;;;;;5057242;28;20037;-63
2022/03/12 01:46:34;;;;;;;11.93;5.38;;;;;;;;;;5063430;28;20110;-63
2022/03/12 01:49:03;;;;;;;9.38;5.50;;;;;;;;;;5054727;28;20320;-63
2022/03/12 01:51:30;;;;;;;8.77;4.85;;;;;;;;;;5049905;28;20040;-63
2022/03/12 01:53:56;;;;;;;18.90;5.72;;;;;;;;;;5050600;28;20052;-63
2022/03/12 01:56:27;;;;;;;14.55;5.50;;;;;;;;;;5049549;28;20048;-62
2022/03/12 01:58:53;;;;;;;10.43;5.32;;;;;;;;;;5052142;28;20053;-63
2022/03/12 02:01:19;;;;;;;15.65;5.80;;;;;;;;;;5050459;28;20044;-63
2022/03/12 02:03:46;;;;;;;16.92;5.95;;;;;;;;;;5046953;28;20094;-63
2022/03/12 02:06:19;;;;;;;9.38;5.28;;;;;;;;;;5041214;28;20087;-63
2022/03/12 02:08:48;;;;;;;9.63;5.30;;;;;;;;;;5048121;28;20113;-63
2022/03/12 02:11:14;;;;;;;9.73;5.40;;;;;;;;;;5060945;28;20119;-63
2022/03/12 02:13:40;;;;;;;10.98;5.53;;;;;;;;;;5051881;28;20436;-63
2022/03/12 02:16:08;;;;;;;10.43;5.65;;;;;;;;;;5048633;28;20036;-63
2022/03/12 02:18:35;;;;;;;11.98;5.53;;;;;;;;;;5051329;28;20049;-63
2022/03/12 02:21:01;;;;;;;11.50;5.47;;;;;;;;;;5051701;28;20041;-63
2022/03/12 02:23:27;;;;;;;12.32;6.28;;;;;;;;;;5050710;28;20037;-63
2022/03/12 02:25:53;;;;;;;15.73;7.47;;;;;;;;;;5050284;28;20045;-63
2022/03/12 02:28:20;;;;;;;15.75;5.75;;;;;;;;;;5049364;28;20055;-62
2022/03/12 02:30:51;;;;;;;15.57;5.43;;;;;;;;;;5033643;28;20093;-63
2022/03/12 02:33:23;;;;;;;8.93;5.90;;;;;;;;;;5066563;28;20075;-63
2022/03/12 02:35:51;;;;;;;10.52;5.80;;;;;;;;;;5052036;28;20045;-62
2022/03/12 02:38:19;;;;;;;11.48;6.15;;;;;;;;;;5053296;28;20040;-63
2022/03/12 02:40:47;;;;;;;13.38;5.75;;;;;;;;;;5053522;28;20342;-63
2022/03/12 02:43:14;;;;;;;11.20;6.13;;;;;;;;;;5051617;28;20072;-63
2022/03/12 02:45:41;;;;;;;18.33;5.38;;;;;;;;;;5060361;28;20069;-63
2022/03/12 02:48:08;;;;;;;14.00;7.10;;;;;;;;;;5054512;28;20435;-63
2022/03/12 02:50:35;;;;;;;12.65;6.18;;;;;;;;;;5049960;28;20049;-63
2022/03/12 02:53:01;;;;;;;13.35;6.60;;;;;;;;;;5048554;28;20124;-63
2022/03/12 02:55:27;;;;;;;13.90;6.32;;;;;;;;;;5051273;28;20060;-63
2022/03/12 02:57:53;;;;;;;12.68;6.32;;;;;;;;;;5050516;28;20548;-62
2022/03/12 03:00:20;;;;;;;9.95;5.53;;;;;;;;;;5049192;28;20106;-63
2022/03/12 03:02:52;;;;;;;14.57;6.15;;;;;;;;;;5052053;28;20392;-62
2022/03/12 03:05:29;;;;;;;12.50;6.95;;;;;;;;;;5048493;28;20048;-63
2022/03/12 03:07:55;;;;;;;12.65;6.70;;;;;;;;;;5051996;28;20168;-63
2022/03/12 03:10:34;;;;;;;10.73;6.55;;;;;;;;;;5054357;28;20080;-63
2022/03/12 03:13:30;;;;;;;11.68;5.95;;;;;;;;;;5050029;28;20110;-63
2022/03/12 03:15:59;;;;;;;12.75;5.65;;;;;;;;;;5048583;28;20106;-63
2022/03/12 03:18:28;;;;;;;11.52;5.53;;;;;;;;;;5050763;28;20484;-63
2022/03/12 03:20:55;;;;;;;12.55;6.05;;;;;;;;;;5050342;28;20045;-63
2022/03/12 03:23:23;;;;;;;10.52;5.53;;;;;;;;;;5050960;28;20066;-63
2022/03/12 03:25:50;;;;;;;13.85;5.88;;;;;;;;;;5051067;28;20488;-63
2022/03/12 03:28:16;;;;;;;11.93;6.90;;;;;;;;;;5050630;28;20049;-62
2022/03/12 03:30:43;;;;;;;11.90;5.90;;;;;;;;;;5053712;28;21676;-62
2022/03/12 03:33:10;;;;;;;11.75;6.88;;;;;;;;;;5048272;28;20052;-63
2022/03/12 03:35:38;;;;;;;10.90;6.22;;;;;;;;;;5050424;28;20033;-63
2022/03/12 03:38:04;;;;;;;12.40;6.53;;;;;;;;;;5051604;28;20055;-63
2022/03/12 03:40:31;;;;;;;12.50;5.78;;;;;;;;;;5051977;28;20044;-63
2022/03/12 03:42:57;;;;;;;11.48;6.20;;;;;;;;;;5054051;28;20496;-63
2022/03/12 03:45:24;;;;;;;12.75;6.43;;;;;;;;;;5058997;28;20045;-63
2022/03/12 03:47:51;;;;;;;10.27;6.15;;;;;;;;;;5052536;28;20077;-62
2022/03/12 03:50:22;;;;;;;11.07;6.40;;;;;;;;;;5048691;28;20048;-63
2022/03/12 03:52:48;;;;;;;11.57;6.30;;;;;;;;;;5057247;28;20044;-63
2022/03/12 03:55:14;;;;;;;11.05;6.25;;;;;;;;;;5053288;28;20087;-63
2022/03/12 03:57:41;;;;;;;14.10;6.40;;;;;;;;;;5056628;28;20691;-63
2022/03/12 04:00:07;;;;;;;10.65;6.35;;;;;;;;;;5057264;28;20448;-63
2022/03/12 04:02:33;;;;;;;13.68;6.70;;;;;;;;;;5057378;28;20114;-62
2022/03/12 04:04:59;;;;;;;13.00;5.97;;;;;;;;;;5057060;28;20037;-63
2022/03/12 04:07:26;;;;;;;12.30;6.90;;;;;;;;;;5053902;28;20072;-63
2022/03/12 04:09:52;;;;;;;12.23;6.43;;;;;;;;;;5047625;28;20047;-63
2022/03/12 04:12:18;;;;;;;13.80;6.93;;;;;;;;;;5044767;28;20095;-63
2022/03/12 04:14:44;;;;;;;14.27;5.95;;;;;;;;;;5047622;28;20453;-63
2022/03/12 04:17:12;;;;;;;13.27;6.55;;;;;;;;;;5052112;28;20139;-62
2022/03/12 04:19:39;;;;;;;12.35;7.38;;;;;;;;;;5051851;28;20045;-63
2022/03/12 04:22:06;;;;;;;13.00;7.00;;;;;;;;;;5052487;28;20068;-63
2022/03/12 04:24:32;;;;;;;14.13;7.57;;;;;;;;;;5051253;28;20054;-63
2022/03/12 04:26:59;;;;;;;16.70;8.05;;;;;;;;;;5053356;28;20455;-63
2022/03/12 04:29:25;;;;;;;13.35;7.82;;;;;;;;;;5055651;28;20037;-63
2022/03/12 04:31:51;;;;;;;14.93;7.70;;;;;;;;;;5058606;28;20546;-62
2022/03/12 04:34:17;;;;;;;19.92;8.27;;;;;;;;;;5059919;28;20040;-63
2022/03/12 04:36:46;;;;;;;15.05;7.93;;;;;;;;;;5055210;28;20052;-63
2022/03/12 04:39:12;;;;;;;15.32;7.60;;;;;;;;;;5035212;28;20064;-63
2022/03/12 04:41:40;;;;;;;17.38;9.05;;;;;;;;;;5056311;28;20052;-62
2022/03/12 04:44:07;;;;;;;16.48;8.75;;;;;;;;;;5052753;28;20077;-63
2022/03/12 04:46:34;;;;;;;15.27;8.27;;;;;;;;;;5089350;28;20408;-63
2022/03/12 04:49:00;;;;;;;16.40;8.43;;;;;;;;;;5052401;28;20430;-62
2022/03/12 04:51:28;;;;;;;16.92;9.50;;;;;;;;;;5055087;28;20080;-62
2022/03/12 04:53:58;;;;;;;13.60;8.13;;;;;;;;;;5052733;28;20119;-62
2022/03/12 04:56:25;;;;;;;14.50;8.63;;;;;;;;;;5055676;28;20045;-62
2022/03/12 04:58:53;;;;;;;16.95;9.18;;;;;;;;;;5053963;28;21649;-62
2022/03/12 05:01:20;;;;;;;17.00;9.15;;;;;;;;;;5052805;28;20045;-62
2022/03/12 05:03:47;;;;;;;15.48;9.65;;;;;;;;;;5052633;28;20033;-61
2022/03/12 05:06:13;;;;;;;15.98;9.40;;;;;;;;;;5051724;28;20368;-62
2022/03/12 05:08:40;;;;;;;16.88;10.38;;;;;;;;;;5057490;28;21589;-62
2022/03/12 05:11:06;;;;;;;15.88;9.32;;;;;;;;;;5065804;28;20047;-62
2022/03/12 05:13:33;;;;;;;17.80;10.02;;;;;;;;;;5053608;28;20053;-62
2022/03/12 05:16:03;;;;;;;15.20;8.80;;;;;;;;;;5051803;28;20102;-63
2022/03/12 05:18:30;;;;;;;21.40;9.95;;;;;;;;;;5051120;28;20139;-62
2022/03/12 05:20:56;;;;;;;14.60;8.98;;;;;;;;;;5050081;28;20052;-62
2022/03/12 05:23:23;;;;;;;14.93;8.63;;;;;;;;;;5052516;28;20391;-62
2022/03/12 05:25:50;;;;;;;18.25;9.10;;;;;;;;;;5052126;28;20480;-62
2022/03/12 05:28:19;;;;;;;13.82;8.30;;;;;;;;;;5051672;28;20048;-63
2022/03/12 05:30:46;;;;;;;14.10;7.80;;;;;;;;;;5050912;28;20476;-62
2022/03/12 05:33:13;;;;;;;18.92;8.75;;;;;;;;;;5050189;28;20053;-62
2022/03/12 05:35:42;;;;;;;16.17;7.82;;;;;;;;;;5054519;28;20041;-62
2022/03/12 05:38:10;;;;;;;15.40;8.20;;;;;;;;;;5050489;28;20071;-62
2022/03/12 05:40:40;;;;;;;19.00;8.52;;;;;;;;;;5051325;28;20044;-62
2022/03/12 05:43:10;;;;;;;16.38;8.73;;;;;;;;;;5051369;28;20098;-62
2022/03/12 05:45:37;;;;;;;12.85;8.07;;;;;;;;;;5051704;28;20567;-62
2022/03/12 05:48:04;;;;;;;13.70;7.80;;;;;;;;;;5053255;28;20041;-62
2022/03/12 05:50:30;;;;;;;14.32;7.93;;;;;;;;;;5053776;28;20068;-63
2022/03/12 05:52:56;;;;;;;15.38;9.32;;;;;;;;;;5050784;28;20500;-63
2022/03/12 05:55:23;;;;;;;13.95;8.55;;;;;;;;;;5054192;28;20119;-62
2022/03/12 05:57:50;;;;;;;17.80;8.82;;;;;;;;;;5054488;28;20055;-62
2022/03/12 06:00:17;;;;;;;14.50;8.00;;;;;;;;;;5048042;28;20121;-62
2022/03/12 06:02:50;;;;;;;18.00;8.95;;;;;;;;;;5050339;28;20803;-62
2022/03/12 06:05:19;;;;;;;14.77;8.20;;;;;;;;;;5051575;28;20053;-62
2022/03/12 06:07:46;;;;;;;13.60;8.48;;;;;;;;;;5052162;28;20048;-62
2022/03/12 06:10:14;;;;;;;15.65;8.38;;;;;;;;;;5051008;28;20037;-62
2022/03/12 06:12:42;;;;;;;14.48;8.98;;;;;;;;;;5054185;28;20095;-63
2022/03/12 06:15:09;;;;;;;14.82;8.20;;;;;;;;;;5049485;28;20056;-62
2022/03/12 06:17:35;;;;;;;13.63;8.95;;;;;;;;;;5051108;28;20049;-63
2022/03/12 06:20:02;;;;;;;14.07;8.90;;;;;;;;;;5052096;28;20037;-62
2022/03/12 06:22:28;;;;;;;15.63;8.23;;;;;;;;;;5049003;28;20103;-62
2022/03/12 06:24:54;;;;;;;17.70;8.50;;;;;;;;;;5052947;28;20041;-62
2022/03/12 06:27:20;;;;;;;19.35;9.57;;;;;;;;;;5058798;28;20052;-63
2022/03/12 06:29:47;;;;;;;15.88;8.27;;;;;;;;;;5055903;28;20450;-62
2022/03/12 06:32:14;;;;;;;15.18;8.48;;;;;;;;;;5054252;28;20078;-63
2022/03/12 06:34:41;;;;;;;16.23;9.05;;;;;;;;;;5032898;28;20044;-62
2022/03/12 06:37:08;;;;;;;14.40;8.20;;;;;;;;;;5050621;28;20169;-62
2022/03/12 06:39:34;;;;;;;12.43;7.20;;;;;;;;;;5050638;28;20041;-63
2022/03/12 06:42:01;;;;;;;15.60;8.40;;;;;;;;;;5049491;28;20040;-62
2022/03/12 06:44:32;;;;;;;17.30;8.27;;;;;;;;;;5049573;28;20102;-62
2022/03/12 06:46:59;;;;;;;13.68;8.38;;;;;;;;;;5043289;28;20447;-63
2022/03/12 06:49:25;;;;;;;16.92;9.60;;;;;;;;;;5042086;28;20083;-63
2022/03/12 06:51:51;;;;;;;16.02;8.75;;;;;;;;;;5045065;28;20044;-63
2022/03/12 06:54:18;;;;;;;17.10;8.25;;;;;;;;;;5044544;28;20408;-63
2022/03/12 06:56:44;;;;;;;17.88;8.02;;;;;;;;;;5041150;28;20045;-63
2022/03/12 06:59:10;;;;;;;18.23;8.40;;;;;;;;;;5044664;28;20049;-63
2022/03/12 07:01:36;;;;;;;18.17;8.32;;;;;;;;;;5046881;28;20131;-63
2022/03/12 07:04:02;;;;;;;13.85;7.18;;;;;;;;;;5045093;28;20067;-64
2022/03/12 07:06:28;;;;;;;14.32;7.72;;;;;;;;;;5047689;28;20090;-64
2022/03/12 07:08:55;;;;;;;16.73;8.80;;;;;;;;;;5051756;28;20054;-65
2022/03/12 07:11:21;;;;;;;15.60;8.07;;;;;;;;;;5047717;28;20040;-65
2022/03/12 07:13:48;;;;;;;18.20;9.00;;;;;;;;;;5050235;28;20072;-64
2022/03/12 07:16:14;;;;;;;16.75;8.85;;;;;;;;;;5081517;28;20071;-65
2022/03/12 07:18:40;;;;;;;13.70;8.05;;;;;;;;;;5053204;28;20415;-64
2022/03/12 07:21:06;;;;;;;13.07;8.52;;;;;;;;;;5054531;28;20072;-64
2022/03/12 07:23:33;;;;;;;15.88;8.95;;;;;;;;;;5055232;28;20116;-64
2022/03/12 07:25:59;;;;;;;16.52;8.82;;;;;;;;;;5056871;28;20158;-64
2022/03/12 07:28:27;;;;;;;18.63;8.60;;;;;;;;;;5052628;28;20055;-64
2022/03/12 07:30:53;;;;;;;23.52;9.90;;;;;;;;;;5055946;28;20075;-65
2022/03/12 07:33:20;;;;;;;12.57;8.00;;;;;;;;;;5052058;28;20460;-64
2022/03/12 07:35:46;;;;;;;14.90;8.38;;;;;;;;;;5054417;28;20048;-65
2022/03/12 07:38:13;;;;;;;16.58;8.63;;;;;;;;;;5053149;28;20438;-64
2022/03/12 07:40:40;;;;;;;16.52;8.68;;;;;;;;;;5050130;28;20374;-64
2022/03/12 07:43:06;;;;;;;14.18;8.32;;;;;;;;;;5050301;28;20036;-65
2022/03/12 07:45:32;;;;;;;16.55;8.73;;;;;;;;;;5050424;28;20128;-65
2022/03/12 07:47:58;;;;;;;16.10;9.68;;;;;;;;;;5046222;28;20045;-64
2022/03/12 07:50:26;;;;;;;18.00;9.75;;;;;;;;;;5045019;28;20400;-63
2022/03/12 07:52:53;;;;;;;14.32;8.77;;;;;;;;;;5055428;28;20036;-64
2022/03/12 07:55:19;;;;;;;15.43;8.27;;;;;;;;;;5053701;28;20133;-64
2022/03/12 07:57:45;;;;;;;19.63;8.40;;;;;;;;;;5051577;28;20135;-64
2022/03/12 08:00:13;;;;;;;14.55;9.10;;;;;;;;;;5047112;28;20056;-64
2022/03/12 08:02:40;;;;;;;14.52;9.00;;;;;;;;;;5046829;28;20167;-63
2022/03/12 08:05:06;;;;;;;17.83;8.10;;;;;;;;;;5043647;28;20053;-63
2022/03/12 08:07:33;;;;;;;16.65;9.20;;;;;;;;;;5041870;28;20147;-64
2022/03/12 08:09:59;;;;;;;15.65;9.30;;;;;;;;;;5048959;28;20052;-64
2022/03/12 08:12:30;;;;;;;14.20;8.35;;;;;;;;;;5050280;28;20473;-64
2022/03/12 08:14:57;;;;;;;18.15;8.35;;;;;;;;;;5044909;28;20037;-63
2022/03/12 08:17:24;;;;;;;14.93;9.18;;;;;;;;;;5048814;28;20033;-63
2022/03/12 08:19:51;;;;;;;14.20;8.40;;;;;;;;;;5047686;28;20488;-63
2022/03/12 08:22:17;;;;;;;18.98;8.88;;;;;;;;;;5039653;28;20042;-63
2022/03/12 08:24:44;;;;;;;14.82;8.80;;;;;;;;;;5049320;28;20052;-64
2022/03/12 08:27:11;;;;;;;14.68;7.93;;;;;;;;;;5046476;28;20059;-64
2022/03/12 08:29:37;;;;;;;17.02;8.55;;;;;;;;;;5047125;28;20423;-64
2022/03/12 08:32:07;;;;;;;14.63;8.75;;;;;;;;;;5047448;28;20672;-63
2022/03/12 08:34:34;;;;;;;15.27;7.47;;;;;;;;;;5045930;28;20045;-64
2022/03/12 08:37:01;;;;;;;17.55;9.43;;;;;;;;;;5047089;28;20108;-63
2022/03/12 08:39:28;;;;;;;15.77;8.50;;;;;;;;;;5048522;28;20142;-63
2022/03/12 08:41:55;;;;;;;14.50;8.45;;;;;;;;;;5053104;28;20099;-63
2022/03/12 08:44:21;;;;;;;14.40;8.48;;;;;;;;;;5051493;28;20051;-63
2022/03/12 08:46:47;;;;;;;16.65;8.70;;;;;;;;;;5048482;28;20055;-64
2022/03/12 08:49:14;;;;;;;15.10;8.30;;;;;;;;;;5043704;28;20053;-64
2022/03/12 08:51:41;;;;;;;16.35;9.43;;;;;;;;;;5042671;28;20052;-63
2022/03/12 08:54:08;;;;;;;15.80;8.20;;;;;;;;;;5049475;28;20061;-64
2022/03/12 08:56:35;;;;;;;14.77;8.18;;;;;;;;;;5046776;28;20136;-63
2022/03/12 08:59:01;;;;;;;18.65;9.45;;;;;;;;;;5043841;28;20077;-63
2022/03/12 09:01:27;;;;;;;13.50;9.00;;;;;;;;;;5046756;28;20052;-70
2022/03/12 09:03:54;;;;;;;16.55;9.13;;;;;;;;;;5044723;28;20353;-63
2022/03/12 09:06:20;;;;;;;14.13;8.65;;;;;;;;;;5038887;28;20037;-63
2022/03/12 09:08:46;;;;;;;13.75;8.75;;;;;;;;;;5042853;28;20037;-63
2022/03/12 09:11:16;;;;;;;14.07;8.77;;;;;;;;;;5042779;28;20183;-63
2022/03/12 09:13:42;;;;;;;16.85;10.50;;;;;;;;;;5045378;28;21239;-63
2022/03/12 09:16:08;;;;;;;18.70;9.18;;;;;;;;;;5043223;28;20050;-63
2022/03/12 09:18:34;;;;;;;16.17;9.32;;;;;;;;;;5044046;28;20408;-63
2022/03/12 09:21:01;;;;;;;17.98;9.63;;;;;;;;;;5046408;28;20132;-63
2022/03/12 09:23:27;;;;;;;12.13;8.02;;;;;;;;;;5041340;28;20090;-63
2022/03/12 09:25:53;;;;;;;16.35;10.02;;;;;;;;;;5039490;28;20496;-63
2022/03/12 09:28:20;;;;;;;16.73;9.63;;;;;;;;;;5046748;28;20037;-63
2022/03/12 09:30:52;;;;;;;15.38;10.18;;;;;;;;;;5042529;28;20095;-63
2022/03/12 09:33:21;;;;;;;13.70;8.45;;;;;;;;;;5043100;28;20045;-64
2022/03/12 09:35:47;;;;;;;14.40;9.48;;;;;;;;;;5048643;28;20369;-64
2022/03/12 09:38:15;;;;;;;14.23;9.10;;;;;;;;;;5040041;28;20400;-64
2022/03/12 09:40:42;;;;;;;16.42;9.20;;;;;;;;;;5045506;28;20068;-63
2022/03/12 09:43:09;;;;;;;14.90;8.90;;;;;;;;;;5044270;28;20053;-63
2022/03/12 09:45:36;;;;;;;15.00;8.88;;;;;;;;;;5046336;28;20399;-63
2022/03/12 09:48:02;;;;;;;14.60;9.25;;;;;;;;;;5048160;28;20056;-63
2022/03/12 09:50:29;;;;;;;16.08;9.10;;;;;;;;;;5043919;28;20047;-63
2022/03/12 09:52:55;;;;;;;16.63;9.93;;;;;;;;;;5042499;28;20129;-63
2022/03/12 09:55:22;;;;;;;13.93;8.63;;;;;;;;;;5044694;28;20041;-63
2022/03/12 09:57:49;;;;;;;14.68;8.98;;;;;;;;;;5038922;28;20431;-63
2022/03/12 10:00:16;;;;;;;16.73;8.55;;;;;;;;;;5042737;28;20439;-63
2022/03/12 10:02:43;;;;;;;16.55;8.45;;;;;;;;;;5040577;28;20564;-63
2022/03/12 10:05:13;;;;;;;13.98;8.77;;;;;;;;;;5040271;28;20125;-63
2022/03/12 10:07:41;;;;;;;12.50;8.05;;;;;;;;;;5043610;28;20052;-63
2022/03/12 10:10:11;;;;;;;13.05;8.80;;;;;;;;;;5040900;28;20411;-63
2022/03/12 10:12:37;;;;;;;12.52;7.88;;;;;;;;;;5044482;28;20048;-63
2022/03/12 10:15:03;;;;;;;13.52;9.02;;;;;;;;;;5040533;28;20060;-63
2022/03/12 10:17:30;;;;;;;13.82;8.18;;;;;;;;;;5044471;28;20432;-63
2022/03/12 10:19:57;;;;;;;13.25;7.72;;;;;;;;;;5043936;28;20045;-63
2022/03/12 10:22:23;;;;;;;13.90;8.98;;;;;;;;;;5041536;28;20060;-63
2022/03/12 10:24:50;;;;;;;12.40;7.03;;;;;;;;;;5038726;28;20110;-63
2022/03/12 10:27:16;;;;;;;15.02;9.35;;;;;;;;;;5039049;28;20045;-63
2022/03/12 10:29:43;;;;;;;17.20;9.23;;;;;;;;;;5039374;28;20036;-63
2022/03/12 10:32:23;;;;;;;15.90;8.73;;;;;;;;;;5044876;28;20045;-62
2022/03/12 10:34:52;;;;;;;17.60;9.15;;;;;;;;;;5047557;28;20106;-63
2022/03/12 10:37:23;;;;;;;15.48;8.68;;;;;;;;;;5044249;28;20140;-62
2022/03/12 10:40:03;;;;;;;14.88;8.73;;;;;;;;;;5049278;28;20389;-64
2022/03/12 10:42:30;;;;;;;13.07;8.88;;;;;;;;;;5046143;28;21150;-63
2022/03/12 10:45:04;;;;;;;14.32;9.38;;;;;;;;;;5045519;28;20227;-63
2022/03/12 10:47:30;;;;;;;14.07;8.00;;;;;;;;;;5045626;28;20049;-63
2022/03/12 10:49:58;;;;;;;13.55;8.80;;;;;;;;;;5049560;28;20049;-63
2022/03/12 10:52:28;;;;;;;14.82;7.85;;;;;;;;;;5048160;28;20033;-63
2022/03/12 10:54:54;;;;;;;11.95;7.00;;;;;;;;;;5048869;28;20053;-63
2022/03/12 10:57:21;;;;;;;14.88;7.20;;;;;;;;;;5049377;28;20106;-63
2022/03/12 10:59:52;;;;;;;11.50;7.22;;;;;;;;;;5047278;28;20053;-64
2022/03/12 11:02:18;;;;;;;13.52;7.82;;;;;;;;;;5037043;28;20041;-63
2022/03/12 11:04:44;;;;;;;15.68;7.80;;;;;;;;;;5048903;28;20377;-64
2022/03/12 11:07:24;;;;;;;16.15;7.82;;;;;;;;;;5049023;28;20479;-63
2022/03/12 11:09:50;;;;;;;13.50;8.40;;;;;;;;;;5047750;28;20123;-63
2022/03/12 11:12:30;;;;;;;12.07;7.38;;;;;;;;;;5049775;28;20124;-62
2022/03/12 11:15:03;;;;;;;12.95;7.72;;;;;;;;;;5045601;28;20131;-63
2022/03/12 11:17:29;;;;;;;11.68;7.05;;;;;;;;;;5047416;28;20170;-63
2022/03/12 11:19:57;;;;;;;11.85;7.22;;;;;;;;;;5047501;28;20029;-62
2022/03/12 11:22:24;;;;;;;12.38;6.75;;;;;;;;;;5046213;28;20046;-63
2022/03/12 11:24:51;;;;;;;12.02;5.70;;;;;;;;;;5047683;28;20171;-62
2022/03/12 11:27:35;;;;;;;10.70;6.20;;;;;;;;;;5050915;28;20091;-63
2022/03/12 11:30:04;;;;;;;12.90;6.10;;;;;;;;;;5047251;28;20499;-63
2022/03/12 11:32:31;;;;;;;10.55;4.43;;;;;;;;;;5048765;28;20044;-63
2022/03/12 11:35:06;;;;;;;9.70;4.50;;;;;;;;;;5039058;28;20045;-63
2022/03/12 11:37:36;;;;;;;9.88;4.93;;;;;;;;;;5043253;28;20053;-63
2022/03/12 11:40:04;;;;;;;10.38;4.35;;;;;;;;;;5042042;28;20041;-63
2022/03/12 11:42:33;;;;;;;8.05;4.70;;;;;;;;;;5045905;28;20059;-63
2022/03/12 11:45:00;;;;;;;10.77;4.78;;;;;;;;;;5050058;28;20051;-63
2022/03/12 11:47:27;;;;;;;13.55;4.45;;;;;;;;;;5050333;28;20411;-62
2022/03/12 11:49:55;;;;;;;7.18;3.88;;;;;;;;;;5049737;28;20044;-62
2022/03/12 11:52:21;;;;;;;11.45;4.53;;;;;;;;;;5045924;28;20041;-62
2022/03/12 11:54:48;;;;;;;11.75;4.20;;;;;;;;;;5046706;28;20080;-62
2022/03/12 11:57:27;;;;;;;11.52;4.65;;;;;;;;;;5048151;28;20346;-62
2022/03/12 11:59:53;;;;;;;9.48;3.97;;;;;;;;;;5046441;28;20396;-62
2022/03/12 12:02:22;;;;;;;8.73;4.03;;;;;;;;;;5051678;28;20140;-63
2022/03/12 12:04:51;;;;;;;8.93;4.00;;;;;;;;;;5049659;28;20120;-62
2022/03/12 12:07:17;;;;;;;11.57;3.60;;;;;;;;;;5042818;28;20495;-63
2022/03/12 12:09:43;;;;;;;8.25;3.45;;;;;;;;;;5049235;28;20068;-63
2022/03/12 12:12:13;;;;;;;9.00;3.40;;;;;;;;;;5055231;28;20045;-63
2022/03/12 12:14:41;;;;;;;12.13;4.38;;;;;;;;;;5059421;28;20056;-63
2022/03/12 12:17:07;;;;;;;11.05;4.57;;;;;;;;;;5051633;28;20123;-62
2022/03/12 12:19:34;;;;;;;7.70;4.20;;;;;;;;;;5046196;28;20560;-62
2022/03/12 12:22:01;;;;;;;9.38;4.10;;;;;;;;;;5047607;28;20135;-62
2022/03/12 12:24:29;;;;;;;11.10;4.28;;;;;;;;;;5049781;28;20055;-63
2022/03/12 12:26:57;;;;;;;8.82;4.50;;;;;;;;;;5043956;28;20124;-62
2022/03/12 12:29:42;;;;;;;7.93;4.10;;;;;;;;;;5043275;28;20187;-62
2022/03/12 12:32:09;;;;;;;11.80;4.40;;;;;;;;;;5049227;28;20041;-63
2022/03/12 12:34:35;;;;;;;9.93;4.10;;;;;;;;;;5048770;28;20138;-63
2022/03/12 12:37:02;;;;;;;10.70;4.57;;;;;;;;;;5044653;28;20045;-63
2022/03/12 12:39:29;;;;;;;8.10;4.60;;;;;;;;;;5045892;28;20037;-63
2022/03/12 12:41:58;;;;;;;10.27;4.78;;;;;;;;;;5049923;28;20158;-63
2022/03/12 12:44:35;;;;;;;7.50;4.22;;;;;;;;;;5047495;28;20041;-63
2022/03/12 12:47:02;;;;;;;9.23;5.10;;;;;;;;;;5049317;28;20727;-63
2022/03/12 12:49:33;;;;;;;7.25;4.18;;;;;;;;;;5048517;28;20193;-64
2022/03/12 12:52:00;;;;;;;9.77;4.70;;;;;;;;;;5049027;28;20051;-63
2022/03/12 12:54:45;;;;;;;12.50;5.25;;;;;;;;;;5047322;28;20045;-63
2022/03/12 12:57:11;;;;;;;8.23;4.30;;;;;;;;;;5043941;28;20131;-63
2022/03/12 12:59:41;;;;;;;9.10;4.15;;;;;;;;;;5041614;28;20044;-64
2022/03/12 13:02:07;;;;;;;10.48;4.03;;;;;;;;;;5045029;28;20044;-63
2022/03/12 13:04:45;;;;;;;9.27;4.60;;;;;;;;;;5047358;28;20081;-63
2022/03/12 13:07:19;;;;;;;9.82;4.47;;;;;;;;;;5045189;28;20036;-63
2022/03/12 13:09:46;;;;;;;10.60;5.03;;;;;;;;;;5042958;28;20445;-63
2022/03/12 13:12:15;;;;;;;15.18;5.70;;;;;;;;;;5046203;28;20492;-63
2022/03/12 13:14:43;;;;;;;16.35;11.43;;;;;;;;;;5045067;28;20051;-63
2022/03/12 13:17:11;;;;;;;10.75;5.97;;;;;;;;;;5044909;28;20044;-64
2022/03/12 13:19:37;;;;;;;9.13;4.43;;;;;;;;;;5046253;28;20068;-63
2022/03/12 13:22:04;;;;;;;14.73;7.20;;;;;;;;;;5045791;28;20053;-63
2022/03/12 13:24:32;;;;;;;11.32;6.07;;;;;;;;;;5047196;28;20049;-64
2022/03/12 13:27:02;;;;;;;10.43;6.28;;;;;;;;;;5044980;28;20102;-63
2022/03/12 13:29:29;;;;;;;14.30;8.15;;;;;;;;;;5044627;28;20098;-63
2022/03/12 13:31:55;;;;;;;11.15;6.78;;;;;;;;;;5046443;28;20053;-63
2022/03/12 13:34:22;;;;;;;14.77;9.00;;;;;;;;;;5048019;28;20041;-63
2022/03/12 13:36:54;;;;;;;15.63;8.73;;;;;;;;;;5046722;28;20076;-63
2022/03/12 13:39:20;;;;;;;21.50;12.95;;;;;;;;;;5047292;28;20444;-63
2022/03/12 13:41:47;;;;;;;15.57;9.10;;;;;;;;;;5048489;28;20133;-63
2022/03/12 13:44:14;;;;;;;12.90;7.47;;;;;;;;;;5049764;28;20182;-63
2022/03/12 13:46:41;;;;;;;10.57;6.18;;;;;;;;;;5047605;28;21813;-63
2022/03/12 13:49:09;;;;;;;11.25;7.07;;;;;;;;;;5046217;28;20073;-63
2022/03/12 13:51:39;;;;;;;10.32;6.75;;;;;;;;;;5047667;28;20063;-63
2022/03/12 13:54:06;;;;;;;11.40;6.30;;;;;;;;;;5042478;28;20381;-63
2022/03/12 13:56:33;;;;;;;13.18;8.00;;;;;;;;;;5041494;28;20428;-63
2022/03/12 13:59:04;;;;;;;12.88;7.10;;;;;;;;;;5046060;28;20459;-63
2022/03/12 14:01:32;;;;;;;10.80;7.20;;;;;;;;;;5043732;28;20554;-63
2022/03/12 14:03:59;;;;;;;9.95;6.32;;;;;;;;;;5047744;28;20099;-63
2022/03/12 14:06:28;;;;;;;17.55;9.77;;;;;;;;;;5044696;28;20079;-63
2022/03/12 14:08:56;;;;;;;11.63;5.88;;;;;;;;;;5049208;28;20116;-63
2022/03/12 14:11:30;;;;;;;10.57;6.47;;;;;;;;;;5046180;28;20037;-63
2022/03/12 14:13:59;;;;;;;12.93;7.70;;;;;;;;;;5042640;28;20103;-63
2022/03/12 14:16:26;;;;;;;10.93;5.88;;;;;;;;;;5046441;28;20045;-62
2022/03/12 14:18:55;;;;;;;11.13;6.28;;;;;;;;;;5049416;28;20051;-62
2022/03/12 14:21:36;;;;;;;11.95;6.03;;;;;;;;;;5046854;28;20053;-63
2022/03/12 14:24:08;;;;;;;92.38;50.28;;;;;;;;;;5047689;28;20139;-63
2022/03/12 14:26:45;;;;;;;83.45;44.15;;;;;;;;;;5042357;28;20115;-63
2022/03/12 14:29:11;;;;;;;103.25;53.70;;;;;;;;;;5045777;28;20064;-62
2022/03/12 14:31:37;;;;;;;12.15;6.25;;;;;;;;;;5046270;28;20150;-64
2022/03/12 14:34:05;;;;;;;12.55;6.07;;;;;;;;;;5047802;28;20057;-63